Time;durP1;ratioP1;P1;durP2;ratioP2;P2;SDS_P1;SDS_P2;PMS_P1;PMS_P2;Temp;Humidity;BMP_temperature;BMP_pressure;BME280_temperature;BME280_humidity;BME280_pressure;Samples;Min_cycle;Max_cycle;Signal;HPM_P1;HPM_P2
2021/12/27 00:03:40;;;;;;;105.43;41.43;;;;;;;-8.68;100.00;100111.13;10575107;28;20234;-69
2021/12/27 00:08:43;;;;;;;102.00;42.70;;;;;;;-8.73;100.00;100239.03;10575163;28;20225;-68
2021/12/27 00:13:49;;;;;;;110.27;45.00;;;;;;;-8.71;100.00;100296.94;10574953;28;20692;-66
2021/12/27 00:18:52;;;;;;;118.40;50.57;;;;;;;-8.82;100.00;100323.06;10575365;28;20658;-73
2021/12/27 00:23:55;;;;;;;120.43;50.70;;;;;;;-8.87;100.00;100365.47;10574298;28;20675;-67
2021/12/27 00:28:59;;;;;;;114.93;45.47;;;;;;;-8.94;100.00;100407.72;10574193;28;20225;-67
2021/12/27 00:34:03;;;;;;;128.90;53.10;;;;;;;-9.02;100.00;100447.41;10574107;28;20219;-66
2021/12/27 00:39:06;;;;;;;128.83;52.03;;;;;;;-9.18;100.00;100487.31;10593978;28;20229;-67
2021/12/27 00:44:11;;;;;;;118.33;50.40;;;;;;;-9.15;100.00;100526.88;10616090;27;20222;-68
2021/12/27 00:49:15;;;;;;;124.70;51.73;;;;;;;-9.26;100.00;100558.78;10616139;27;20218;-70
2021/12/27 00:54:18;;;;;;;123.77;49.83;;;;;;;-9.28;100.00;100584.59;10589254;27;20221;-67
2021/12/27 00:59:23;;;;;;;117.43;47.07;;;;;;;-9.38;100.00;100632.38;10587767;28;20314;-68
2021/12/27 01:04:28;;;;;;;128.63;50.10;;;;;;;-9.34;100.00;100760.84;10586946;28;20238;-68
2021/12/27 01:09:40;;;;;;;125.90;51.00;;;;;;;-9.42;100.00;101542.19;10586661;28;20221;-69
2021/12/27 01:15:06;;;;;;;130.47;51.57;;;;;;;-9.38;100.00;101742.69;10586693;28;20667;-66
2021/12/27 01:20:12;;;;;;;120.20;52.10;;;;;;;-9.52;100.00;101850.34;10586310;28;20219;-69
2021/12/27 01:25:16;;;;;;;131.33;49.63;;;;;;;-9.55;100.00;102025.88;10586232;28;20206;-68
2021/12/27 01:30:22;;;;;;;121.43;49.97;;;;;;;-9.61;100.00;102276.44;10586007;27;20219;-68
2021/12/27 01:35:26;;;;;;;133.13;51.50;;;;;;;-9.52;100.00;102279.00;10585188;28;20233;-70
2021/12/27 01:40:29;;;;;;;122.67;51.50;;;;;;;-9.58;100.00;100412.53;10553545;28;20238;-69
2021/12/27 01:45:36;;;;;;;135.10;52.83;;;;;;;-9.70;100.00;100476.94;10543012;28;20207;-68
2021/12/27 01:50:41;;;;;;;118.27;48.50;;;;;;;-9.86;100.00;100520.16;10542869;28;20664;-67
2021/12/27 01:55:45;;;;;;;120.37;47.00;;;;;;;-9.77;100.00;100560.09;10542899;28;20555;-69
2021/12/27 02:00:53;;;;;;;113.03;46.90;;;;;;;-9.59;100.00;100609.13;10542331;28;20234;-69
2021/12/27 02:05:57;;;;;;;121.40;47.23;;;;;;;-9.64;100.00;100646.47;10541467;28;20216;-67
2021/12/27 02:11:00;;;;;;;129.30;47.97;;;;;;;-9.73;100.00;100680.03;10541989;28;20258;-68
2021/12/27 02:16:08;;;;;;;118.87;48.70;;;;;;;-9.81;100.00;100703.69;10545051;28;20626;-68
2021/12/27 02:21:13;;;;;;;110.27;46.33;;;;;;;-9.79;100.00;100725.66;10545016;28;20225;-68
2021/12/27 02:26:16;;;;;;;107.73;43.17;;;;;;;-9.89;100.00;100755.84;10545173;28;20212;-70
2021/12/27 02:31:20;;;;;;;116.73;44.30;;;;;;;-9.86;100.00;100775.28;10544321;28;20241;-68
2021/12/27 02:36:25;;;;;;;113.97;43.30;;;;;;;-9.91;100.00;100800.03;10544701;28;20208;-69
2021/12/27 02:41:28;;;;;;;122.03;44.00;;;;;;;-9.98;100.00;100819.50;10543831;28;20664;-68
2021/12/27 02:46:31;;;;;;;105.23;43.60;;;;;;;-10.06;100.00;100841.47;10544076;28;20208;-69
2021/12/27 02:51:36;;;;;;;114.07;42.63;;;;;;;-10.03;100.00;100850.88;10543605;28;20319;-71
2021/12/27 02:56:39;;;;;;;96.50;40.50;;;;;;;-9.99;100.00;100857.91;10543710;28;20215;-72
2021/12/27 03:01:43;;;;;;;98.37;40.13;;;;;;;-10.02;100.00;100872.69;10543426;28;20215;-66
2021/12/27 03:06:47;;;;;;;97.93;38.43;;;;;;;-9.94;100.00;100897.63;10543254;28;20612;-69
2021/12/27 03:11:55;;;;;;;100.03;38.33;;;;;;;-9.89;100.00;100880.44;10542990;28;20308;-69
2021/12/27 03:16:58;;;;;;;95.87;36.27;;;;;;;-9.98;100.00;100880.59;10542742;28;20221;-63
2021/12/27 03:22:03;;;;;;;98.10;38.63;;;;;;;-10.01;100.00;100887.88;10542778;28;20215;-63
2021/12/27 03:27:07;;;;;;;86.73;35.23;;;;;;;-10.04;100.00;100894.31;10542949;28;20212;-66
2021/12/27 03:32:10;;;;;;;90.60;38.20;;;;;;;-10.08;100.00;100890.69;10542744;28;20679;-69
2021/12/27 03:37:14;;;;;;;104.13;40.30;;;;;;;-10.00;100.00;100909.72;10542575;28;20216;-70
2021/12/27 03:42:18;;;;;;;97.70;36.77;;;;;;;-10.08;100.00;100913.28;10542119;28;20231;-67
2021/12/27 03:47:21;;;;;;;85.50;35.63;;;;;;;-10.14;100.00;100907.78;10542298;28;20726;-67
2021/12/27 03:52:26;;;;;;;89.27;32.30;;;;;;;-10.21;100.00;100904.66;10542045;28;20219;-68
2021/12/27 03:57:31;;;;;;;90.30;34.70;;;;;;;-10.24;100.00;100902.78;10541840;28;20611;-67
2021/12/27 04:02:37;;;;;;;91.97;34.87;;;;;;;-10.18;100.00;100887.38;10541961;28;20219;-71
2021/12/27 04:07:43;;;;;;;92.13;36.90;;;;;;;-10.28;100.00;100885.75;10541852;28;20230;-70
2021/12/27 04:12:46;;;;;;;85.27;34.17;;;;;;;-10.34;100.00;100877.75;10541860;28;20227;-66
2021/12/27 04:17:51;;;;;;;96.30;34.23;;;;;;;-10.35;100.00;100875.97;10541749;28;20291;-68
2021/12/27 04:22:56;;;;;;;74.27;31.13;;;;;;;-10.38;100.00;100882.38;10541598;28;20223;-69
2021/12/27 04:27:59;;;;;;;75.73;30.77;;;;;;;-10.26;100.00;100900.91;10545899;28;20595;-70
2021/12/27 04:33:03;;;;;;;83.47;32.43;;;;;;;-10.39;100.00;100899.06;10549352;28;20237;-68
2021/12/27 04:38:08;;;;;;;86.00;32.43;;;;;;;-10.29;100.00;100904.06;10549269;28;20663;-67
2021/12/27 04:43:14;;;;;;;74.17;31.50;;;;;;;-10.37;100.00;100901.72;10548354;28;20314;-66
2021/12/27 04:48:21;;;;;;;77.87;31.57;;;;;;;-10.44;100.00;100922.03;10544572;28;20280;-66
2021/12/27 04:53:26;;;;;;;76.20;32.73;;;;;;;-10.42;100.00;100918.00;10543353;28;20227;-67
2021/12/27 04:58:30;;;;;;;77.37;28.50;;;;;;;-10.40;100.00;100927.41;10545328;28;20196;-69
2021/12/27 05:03:33;;;;;;;72.73;28.07;;;;;;;-10.44;100.00;100922.91;10544456;28;20250;-68
2021/12/27 05:08:38;;;;;;;75.70;30.43;;;;;;;-10.56;100.00;100936.97;10544624;28;20200;-66
2021/12/27 05:13:41;;;;;;;75.50;28.93;;;;;;;-10.65;100.00;100938.72;10544505;28;20191;-71
2021/12/27 05:18:45;;;;;;;62.87;25.03;;;;;;;-10.52;100.00;100923.91;10544305;28;20633;-67
2021/12/27 05:23:49;;;;;;;81.27;29.87;;;;;;;-10.46;100.00;100924.41;10544081;28;20223;-68
2021/12/27 05:28:52;;;;;;;78.50;28.70;;;;;;;-10.55;100.00;100940.31;10543940;28;20203;-70
2021/12/27 05:33:56;;;;;;;68.67;27.57;;;;;;;-10.64;100.00;100940.44;10543352;28;20192;-66
2021/12/27 05:39:00;;;;;;;74.37;29.37;;;;;;;-10.67;100.00;100946.84;10543654;28;20239;-65
2021/12/27 05:44:04;;;;;;;76.67;26.73;;;;;;;-10.62;100.00;100948.09;10542935;28;20300;-65
2021/12/27 05:49:07;;;;;;;67.17;26.50;;;;;;;-10.65;100.00;100956.25;10197989;27;10000623;-67
2021/12/27 05:54:13;;;;;;;62.70;26.43;;;;;;;-10.73;100.00;100953.13;10579389;28;20191;-65
2021/12/27 05:59:17;;;;;;;69.60;27.20;;;;;;;-10.70;100.00;100955.00;10542630;28;20275;-68
2021/12/27 06:04:21;;;;;;;65.93;26.90;;;;;;;-10.79;100.00;100955.13;10542197;28;20893;-70
2021/12/27 06:09:25;;;;;;;67.27;26.97;;;;;;;-10.97;100.00;100955.22;10542141;28;20196;-65
2021/12/27 06:14:28;;;;;;;69.90;25.77;;;;;;;-10.91;100.00;100963.25;10541601;28;20287;-67
2021/12/27 06:19:32;;;;;;;69.03;27.47;;;;;;;-10.85;100.00;100963.75;10542031;28;20628;-67
2021/12/27 06:24:36;;;;;;;69.20;26.60;;;;;;;-10.95;100.00;100953.72;10541121;28;20227;-72
2021/12/27 06:29:40;;;;;;;70.47;26.87;;;;;;;-10.94;100.00;100942.97;10541402;28;20546;-69
2021/12/27 06:34:43;;;;;;;65.23;27.60;;;;;;;-10.92;100.00;100946.44;10541005;28;20230;-68
2021/12/27 06:39:48;;;;;;;67.23;26.40;;;;;;;-10.92;100.00;100948.94;10540656;28;20249;-65
2021/12/27 06:44:51;;;;;;;67.63;26.07;;;;;;;-10.91;100.00;100953.22;10540681;28;20669;-71
2021/12/27 06:49:54;;;;;;;67.63;25.60;;;;;;;-10.92;100.00;100947.34;10554570;28;20715;-66
2021/12/27 06:54:59;;;;;;;66.83;24.53;;;;;;;-10.88;100.00;100953.47;10578033;28;20744;-69
2021/12/27 07:00:10;;;;;;;62.43;25.13;;;;;;;-10.87;100.00;100958.59;10540381;28;20211;-68
2021/12/27 07:05:13;;;;;;;53.23;23.43;;;;;;;-10.77;100.00;100957.75;10539758;28;20223;-69
2021/12/27 07:10:19;;;;;;;67.67;24.90;;;;;;;-10.89;100.00;100960.09;10539661;28;20230;-65
2021/12/27 07:15:22;;;;;;;62.67;25.20;;;;;;;-10.89;100.00;100949.22;10539729;28;20283;-66
2021/12/27 07:20:26;;;;;;;68.73;26.27;;;;;;;-10.97;100.00;100962.72;10539618;28;20310;-66
2021/12/27 07:25:30;;;;;;;86.50;27.80;;;;;;;-10.87;100.00;100967.78;10539109;28;20257;-65
2021/12/27 07:30:34;;;;;;;70.60;25.80;;;;;;;-10.71;100.00;100964.91;10539347;28;20211;-67
2021/12/27 07:35:37;;;;;;;65.53;25.43;;;;;;;-10.56;100.00;100959.53;10538891;28;20215;-69
2021/12/27 07:40:42;;;;;;;75.97;27.33;;;;;;;-10.70;100.00;100960.03;10539114;28;20235;-66
2021/12/27 07:45:45;;;;;;;69.20;27.27;;;;;;;-10.63;100.00;100959.78;10538560;28;20234;-68
2021/12/27 07:50:49;;;;;;;68.30;26.73;;;;;;;-10.57;100.00;100957.75;10561000;28;20223;-67
2021/12/27 07:55:53;;;;;;;60.57;23.57;;;;;;;-10.59;100.00;100958.41;10576566;28;20219;-65
2021/12/27 08:00:56;;;;;;;77.07;29.60;;;;;;;-10.32;100.00;100943.06;10539781;28;20242;-68
2021/12/27 08:06:00;;;;;;;82.17;30.47;;;;;;;-10.47;100.00;100944.34;10549933;28;20234;-68
2021/12/27 08:11:05;;;;;;;67.90;28.53;;;;;;;-10.49;100.00;100961.75;10549938;28;20215;-68
2021/12/27 08:16:08;;;;;;;81.07;31.27;;;;;;;-10.46;100.00;100969.53;10550040;28;20223;-66
2021/12/27 08:21:16;;;;;;;78.90;31.30;;;;;;;-10.39;100.00;100974.31;10549862;28;20219;-68
2021/12/27 08:26:21;;;;;;;78.33;31.03;;;;;;;-10.32;100.00;100966.53;10548922;28;20216;-67
2021/12/27 08:31:24;;;;;;;71.30;31.07;;;;;;;-10.11;100.00;100963.22;10549347;28;20555;-69
2021/12/27 08:36:28;;;;;;;85.80;31.50;;;;;;;-9.96;100.00;100964.44;10548668;28;20219;-64
2021/12/27 08:41:33;;;;;;;81.37;31.33;;;;;;;-9.81;100.00;100960.59;10548753;28;20538;-66
2021/12/27 08:46:36;;;;;;;73.53;29.77;;;;;;;-9.68;100.00;100955.78;10548501;28;20228;-66
2021/12/27 08:51:39;;;;;;;85.33;31.17;;;;;;;-9.17;100.00;100948.00;10548352;28;20554;-65
2021/12/27 08:56:44;;;;;;;77.60;32.00;;;;;;;-8.83;100.00;100953.19;10542295;28;20222;-67
2021/12/27 09:01:47;;;;;;;70.63;29.90;;;;;;;-8.51;100.00;100948.03;10544027;28;20546;-68
2021/12/27 09:06:51;;;;;;;79.80;31.53;;;;;;;-8.30;100.00;100958.81;10547372;28;20219;-71
2021/12/27 09:11:56;;;;;;;75.23;31.93;;;;;;;-8.15;100.00;100945.66;10532744;28;20215;-68
2021/12/27 09:16:59;;;;;;;73.80;29.30;;;;;;;-7.75;100.00;100937.69;10517700;28;20223;-68
2021/12/27 09:22:03;;;;;;;79.93;32.83;;;;;;;-7.63;100.00;100932.63;10547076;28;20227;-65
2021/12/27 09:27:08;;;;;;;75.63;29.23;;;;;;;-7.42;100.00;100929.09;10534690;28;20706;-68
2021/12/27 09:32:12;;;;;;;71.43;29.63;;;;;;;-7.33;100.00;100917.97;10519140;28;20290;-68
2021/12/27 09:37:15;;;;;;;74.90;30.57;;;;;;;-7.04;100.00;100916.56;10515979;28;20230;-65
2021/12/27 09:42:21;;;;;;;69.97;30.03;;;;;;;-6.99;100.00;100911.06;10546583;28;20235;-69
2021/12/27 09:47:24;;;;;;;79.87;29.60;;;;;;;-7.00;100.00;100898.34;10546070;28;20641;-71
2021/12/27 09:52:48;;;;;;;71.47;29.40;;;;;;;-6.80;100.00;100900.56;10546185;28;20223;-70
2021/12/27 09:57:52;;;;;;;66.10;27.70;;;;;;;-6.61;100.00;100895.97;10545584;28;20241;-67
2021/12/27 10:02:57;;;;;;;66.23;28.40;;;;;;;-6.37;100.00;100884.94;10545375;28;20223;-69
2021/12/27 10:08:01;;;;;;;61.27;28.20;;;;;;;-6.14;100.00;100882.22;10545122;28;20682;-66
2021/12/27 10:13:11;;;;;;;64.20;28.40;;;;;;;-5.68;100.00;100876.72;10545544;28;20229;-67
2021/12/27 10:18:16;;;;;;;70.60;29.40;;;;;;;-5.38;100.00;100865.94;10544458;28;20211;-67
2021/12/27 10:23:19;;;;;;;64.83;27.00;;;;;;;-5.05;100.00;100851.91;10543703;28;20678;-67
2021/12/27 10:28:27;;;;;;;65.43;26.33;;;;;;;-4.51;100.00;100854.25;10544346;28;20538;-71
2021/12/27 10:33:33;;;;;;;59.70;25.57;;;;;;;-3.91;100.00;100848.41;10544464;28;20237;-66
2021/12/27 10:38:37;;;;;;;50.93;22.87;;;;;;;-3.44;99.39;100827.25;10543590;28;20354;-67
2021/12/27 10:43:44;;;;;;;49.80;21.63;;;;;;;-2.62;96.33;100811.22;10544196;28;20541;-66
2021/12/27 10:48:55;;;;;;;54.57;22.33;;;;;;;-1.99;93.51;100815.97;10543470;28;20234;-70
2021/12/27 10:54:01;;;;;;;43.37;19.73;;;;;;;-1.49;89.91;100800.47;10543632;28;20223;-66
2021/12/27 10:59:18;;;;;;;55.90;21.60;;;;;;;-1.30;85.28;100787.75;10543075;28;20215;-66
2021/12/27 11:04:21;;;;;;;45.67;18.53;;;;;;;-0.85;83.15;100783.75;10543029;28;20245;-69
2021/12/27 11:09:24;;;;;;;38.43;18.87;;;;;;;-0.47;80.89;100783.66;10542982;28;20302;-69
2021/12/27 11:14:29;;;;;;;47.07;18.23;;;;;;;-0.16;78.49;100782.38;10542710;28;20232;-70
2021/12/27 11:19:32;;;;;;;44.13;18.33;;;;;;;0.18;74.85;100778.56;10542376;28;20290;-70
2021/12/27 11:24:39;;;;;;;37.07;17.17;;;;;;;0.44;72.38;100770.19;10541182;28;20714;-70
2021/12/27 11:30:04;;;;;;;41.40;19.30;;;;;;;0.49;71.36;100766.09;10218448;27;10000936;-68
2021/12/27 11:35:18;;;;;;;43.90;20.20;;;;;;;0.85;68.09;100763.19;10538822;28;20223;-66
2021/12/27 11:40:21;;;;;;;42.83;18.97;;;;;;;0.95;67.74;100754.13;10538744;28;20233;-70
2021/12/27 11:45:39;;;;;;;43.97;18.07;;;;;;;0.92;67.05;100751.50;10538713;28;20268;-66
2021/12/27 11:51:08;;;;;;;41.30;17.60;;;;;;;1.33;65.34;100748.63;10538638;28;20664;-67
2021/12/27 11:56:16;;;;;;;40.90;17.53;;;;;;;1.19;64.10;100737.94;10538967;28;20656;-67
2021/12/27 12:01:39;;;;;;;37.87;17.00;;;;;;;1.40;63.01;100735.22;10538441;28;20219;-66
2021/12/27 12:06:44;;;;;;;41.60;16.47;;;;;;;1.50;63.19;100734.69;10538003;28;20559;-67
2021/12/27 12:12:00;;;;;;;30.47;14.70;;;;;;;1.52;61.11;100727.09;10538364;28;20211;-69
2021/12/27 12:17:07;;;;;;;34.37;14.93;;;;;;;1.23;61.61;100736.38;10538248;28;20219;-66
2021/12/27 12:22:36;;;;;;;40.70;14.37;;;;;;;0.54;61.77;100728.84;10538214;28;20220;-67
2021/12/27 12:27:51;;;;;;;34.10;14.80;;;;;;;0.13;63.17;100732.47;10560911;28;20234;-68
2021/12/27 12:33:00;;;;;;;28.03;13.23;;;;;;;0.12;63.04;100734.97;10551858;28;20639;-68
2021/12/27 12:38:17;;;;;;;33.13;13.80;;;;;;;-0.41;63.13;100728.66;10538186;28;20304;-69
2021/12/27 12:43:32;;;;;;;32.27;13.47;;;;;;;-1.01;65.70;100730.41;10537659;28;20231;-66
2021/12/27 12:48:36;;;;;;;29.10;12.00;;;;;;;-1.31;64.97;100720.69;10541593;28;20644;-69
2021/12/27 12:53:41;;;;;;;31.63;12.87;;;;;;;-1.87;65.19;100714.81;10544754;28;20216;-64
2021/12/27 12:58:44;;;;;;;38.70;13.77;;;;;;;-2.21;67.38;100715.78;10545064;28;20225;-68
2021/12/27 13:03:48;;;;;;;27.00;10.87;;;;;;;-2.57;68.66;100725.09;10544802;28;20215;-65
2021/12/27 13:08:53;;;;;;;28.03;11.00;;;;;;;-2.81;69.50;100726.44;10544484;28;20295;-68
2021/12/27 13:14:01;;;;;;;30.90;10.60;;;;;;;-3.03;70.54;100723.66;10544160;28;20220;-70
2021/12/27 13:19:08;;;;;;;29.23;11.23;;;;;;;-3.03;69.96;100716.03;10544402;28;20241;-70
2021/12/27 13:24:11;;;;;;;27.37;10.60;;;;;;;-3.23;71.23;100710.00;10544030;28;20562;-70
2021/12/27 13:29:18;;;;;;;40.50;17.07;;;;;;;-3.41;71.54;100701.44;10581004;28;20736;-69
2021/12/27 13:34:23;;;;;;;28.80;10.33;;;;;;;-3.37;71.30;100698.28;10553076;28;20556;-65
2021/12/27 13:39:29;;;;;;;29.53;10.67;;;;;;;-3.55;72.10;100704.94;10543367;28;20235;-66
2021/12/27 13:44:34;;;;;;;27.93;11.43;;;;;;;-3.73;72.92;100714.16;10543159;28;20302;-65
2021/12/27 13:49:41;;;;;;;27.73;10.47;;;;;;;-3.99;74.07;100727.13;10543023;28;20234;-69
2021/12/27 13:54:46;;;;;;;27.37;10.10;;;;;;;-3.92;74.00;100736.81;10542768;28;20300;-69
2021/12/27 13:59:49;;;;;;;44.80;18.03;;;;;;;-4.03;75.24;100721.03;10543464;28;20298;-67
2021/12/27 14:04:59;;;;;;;24.33;9.10;;;;;;;-4.21;75.89;100722.56;10542216;28;20560;-68
2021/12/27 14:10:04;;;;;;;30.47;11.37;;;;;;;-4.26;75.94;100725.66;10542293;28;20219;-69
2021/12/27 14:15:08;;;;;;;28.30;11.03;;;;;;;-4.35;77.05;100712.50;10541799;28;20219;-69
2021/12/27 14:20:14;;;;;;;29.27;11.60;;;;;;;-4.59;77.99;100719.59;10541922;28;20233;-68
2021/12/27 14:25:24;;;;;;;26.90;10.70;;;;;;;-4.72;79.23;100727.31;10545736;28;20572;-66
2021/12/27 14:30:30;;;;;;;27.10;10.70;;;;;;;-4.79;80.38;100715.13;10583564;28;20211;-66
2021/12/27 14:35:37;;;;;;;26.50;11.03;;;;;;;-4.93;80.99;100713.47;10548593;28;20211;-68
2021/12/27 14:40:43;;;;;;;30.77;10.67;;;;;;;-5.01;81.65;100712.16;10540995;28;20257;-68
2021/12/27 14:45:46;;;;;;;33.80;11.63;;;;;;;-5.03;81.60;100714.63;10540671;28;20223;-70
2021/12/27 14:50:51;;;;;;;27.90;10.90;;;;;;;-5.12;82.85;100721.69;10540796;28;20215;-68
2021/12/27 14:55:55;;;;;;;27.77;11.30;;;;;;;-5.12;82.38;100716.63;10539926;28;20598;-69
2021/12/27 15:01:06;;;;;;;24.33;10.47;;;;;;;-5.11;82.60;100723.41;10540158;28;20646;-64
2021/12/27 15:06:11;;;;;;;29.00;11.00;;;;;;;-5.25;82.44;100716.72;10539849;28;20309;-69
2021/12/27 15:11:14;;;;;;;30.80;11.53;;;;;;;-5.45;83.63;100707.09;10539510;28;20214;-67
2021/12/27 15:16:17;;;;;;;34.73;11.70;;;;;;;-5.53;85.45;100712.47;10539667;28;20290;-67
2021/12/27 15:21:22;;;;;;;26.40;10.47;;;;;;;-5.44;84.62;100713.03;10539662;28;20211;-68
2021/12/27 15:26:25;;;;;;;28.30;11.00;;;;;;;-5.51;84.47;100726.09;10541010;28;20227;-67
2021/12/27 15:31:29;;;;;;;28.53;11.27;;;;;;;-5.58;84.98;100731.56;10542470;28;20219;-68
2021/12/27 15:36:33;;;;;;;31.13;12.23;;;;;;;-5.71;84.92;100736.69;10541606;28;20242;-64
2021/12/27 15:41:37;;;;;;;29.93;13.13;;;;;;;-5.73;86.25;100728.13;10542210;28;20691;-66
2021/12/27 15:46:40;;;;;;;28.17;10.77;;;;;;;-5.67;85.82;100731.00;10541523;28;20668;-66
2021/12/27 15:51:45;;;;;;;27.17;11.53;;;;;;;-5.85;86.80;100723.25;10542028;28;20219;-67
2021/12/27 15:56:48;;;;;;;30.17;11.70;;;;;;;-5.86;86.63;100726.53;10541649;28;20560;-66
2021/12/27 16:01:52;;;;;;;28.73;12.03;;;;;;;-5.85;86.73;100735.00;10541837;28;20231;-67
2021/12/27 16:06:57;;;;;;;28.80;12.27;;;;;;;-6.00;87.15;100730.78;10541384;28;20279;-66
2021/12/27 16:12:00;;;;;;;35.20;12.37;;;;;;;-6.00;87.98;100743.41;10541657;28;20306;-66
2021/12/27 16:17:06;;;;;;;33.03;13.53;;;;;;;-6.05;87.57;100724.56;10541250;28;20298;-66
2021/12/27 16:22:10;;;;;;;40.03;13.23;;;;;;;-6.22;87.83;100729.38;10543251;28;20216;-65
2021/12/27 16:27:14;;;;;;;37.77;13.27;;;;;;;-6.13;89.02;100735.00;10548939;28;20219;-67
2021/12/27 16:32:17;;;;;;;41.30;12.50;;;;;;;-6.11;89.24;100715.75;10549308;28;20220;-65
2021/12/27 16:37:22;;;;;;;33.83;13.50;;;;;;;-6.17;88.81;100721.31;10548888;28;20541;-67
2021/12/27 16:42:25;;;;;;;39.03;14.67;;;;;;;-6.11;88.25;100724.19;10548744;28;20242;-63
2021/12/27 16:47:28;;;;;;;36.67;13.63;;;;;;;-6.17;88.83;100726.34;10548189;28;20247;-68
2021/12/27 16:52:34;;;;;;;41.10;14.53;;;;;;;-6.24;89.02;100724.22;10548129;28;20623;-66
2021/12/27 16:57:37;;;;;;;37.50;14.97;;;;;;;-6.36;90.06;100725.13;10547997;28;20561;-65
2021/12/27 17:02:40;;;;;;;39.30;16.40;;;;;;;-6.40;89.95;100721.53;10548418;28;20222;-65
2021/12/27 17:07:45;;;;;;;37.33;14.20;;;;;;;-6.49;90.75;100720.09;10547420;28;20238;-64
2021/12/27 17:12:49;;;;;;;35.87;15.07;;;;;;;-6.53;91.75;100726.59;10547728;28;20619;-64
2021/12/27 17:17:52;;;;;;;39.03;15.33;;;;;;;-6.46;91.58;100727.84;10547211;28;20220;-67
2021/12/27 17:22:57;;;;;;;36.40;13.03;;;;;;;-6.53;91.65;100731.66;10547195;28;20224;-67
2021/12/27 17:28:01;;;;;;;36.30;15.03;;;;;;;-6.56;91.49;100736.50;10546765;28;20227;-64
2021/12/27 17:33:05;;;;;;;36.33;14.57;;;;;;;-6.46;91.16;100735.41;10546560;28;20221;-65
2021/12/27 17:38:10;;;;;;;32.23;14.50;;;;;;;-6.57;91.83;100741.44;10546256;28;20530;-67
2021/12/27 17:43:13;;;;;;;35.03;12.23;;;;;;;-6.66;92.42;100734.16;10546310;28;20275;-68
2021/12/27 17:48:17;;;;;;;37.30;13.83;;;;;;;-6.66;91.90;100744.25;10545848;28;20224;-67
2021/12/27 17:53:21;;;;;;;32.13;12.73;;;;;;;-6.57;91.64;100746.47;10546287;28;20195;-64
2021/12/27 17:58:25;;;;;;;30.93;13.20;;;;;;;-6.69;91.71;100745.69;10546045;28;20656;-67
2021/12/27 18:03:28;;;;;;;29.37;11.83;;;;;;;-6.65;91.53;100735.94;10545823;28;20196;-69
2021/12/27 18:08:33;;;;;;;26.83;11.90;;;;;;;-6.60;91.58;100737.09;10545522;28;20207;-65
2021/12/27 18:13:38;;;;;;;32.90;11.83;;;;;;;-6.54;91.24;100736.59;10545528;28;20187;-66
2021/12/27 18:18:42;;;;;;;32.53;11.63;;;;;;;-6.47;91.13;100741.25;10545401;28;20700;-63
2021/12/27 18:23:47;;;;;;;33.50;12.00;;;;;;;-6.56;90.86;100735.63;10545127;28;20201;-68
2021/12/27 18:28:51;;;;;;;32.10;13.37;;;;;;;-6.60;91.37;100732.03;10544783;28;20225;-70
2021/12/27 18:33:54;;;;;;;34.33;13.83;;;;;;;-6.62;91.79;100735.22;10544657;28;20202;-65
2021/12/27 18:39:00;;;;;;;31.43;13.13;;;;;;;-6.61;91.61;100737.00;10544091;28;20669;-65
2021/12/27 18:44:04;;;;;;;31.13;12.43;;;;;;;-6.67;92.10;100739.09;10543734;28;20191;-68
2021/12/27 18:49:08;;;;;;;28.53;12.63;;;;;;;-6.57;92.92;100729.69;10543925;28;20211;-66
2021/12/27 18:54:13;;;;;;;35.70;12.37;;;;;;;-6.59;92.71;100713.59;10543912;28;20652;-65
2021/12/27 18:59:16;;;;;;;33.43;13.20;;;;;;;-6.66;93.20;100720.69;10543318;28;20201;-65
2021/12/27 19:04:20;;;;;;;28.50;11.57;;;;;;;-6.66;92.58;100718.16;10541369;28;20198;-68
2021/12/27 19:09:25;;;;;;;35.37;12.07;;;;;;;-6.77;93.79;100711.56;10542916;28;20531;-65
2021/12/27 19:14:28;;;;;;;27.80;12.57;;;;;;;-6.73;93.40;100704.28;10543110;28;20187;-69
2021/12/27 19:19:31;;;;;;;28.83;11.80;;;;;;;-6.70;92.98;100701.09;10542683;28;20219;-65
2021/12/27 19:24:36;;;;;;;144.87;52.23;;;;;;;-6.66;92.58;100700.50;10542750;28;20202;-66
2021/12/27 19:29:39;;;;;;;32.80;11.87;;;;;;;-6.68;92.60;100702.06;10542291;28;20686;-70
2021/12/27 19:34:42;;;;;;;31.40;11.03;;;;;;;-6.71;93.29;100704.41;10542544;28;20302;-66
2021/12/27 19:39:48;;;;;;;29.73;11.07;;;;;;;-6.71;93.04;100714.50;10205827;27;10000387;-66
2021/12/27 19:44:51;;;;;;;31.30;11.60;;;;;;;-6.62;91.93;100708.34;10581266;28;20298;-65
2021/12/27 19:49:55;;;;;;;27.63;12.13;;;;;;;-6.69;92.37;100698.66;10581077;28;20219;-68
2021/12/27 19:54:59;;;;;;;27.50;10.93;;;;;;;-6.60;92.02;100695.81;10527696;28;20255;-65
2021/12/27 20:00:04;;;;;;;24.47;10.87;;;;;;;-6.55;91.74;100694.47;10508220;28;20303;-64
2021/12/27 20:05:09;;;;;;;32.23;10.83;;;;;;;-6.46;91.11;100697.56;10508225;28;20664;-66
2021/12/27 20:10:17;;;;;;;27.30;11.17;;;;;;;-6.44;90.73;100699.41;10508249;28;20336;-66
2021/12/27 20:15:20;;;;;;;28.87;11.70;;;;;;;-6.57;90.79;100699.41;10508135;28;20248;-66
2021/12/27 20:20:25;;;;;;;29.10;12.17;;;;;;;-6.57;91.06;100693.50;10507765;28;20212;-66
2021/12/27 20:25:31;;;;;;;28.87;11.53;;;;;;;-6.62;90.69;100690.69;10507648;28;20224;-67
2021/12/27 20:30:35;;;;;;;32.53;12.90;;;;;;;-6.69;90.99;100687.69;10537169;28;20687;-64
2021/12/27 20:35:39;;;;;;;33.27;12.57;;;;;;;-6.67;91.58;100683.59;10549428;28;20276;-67
2021/12/27 20:40:43;;;;;;;26.77;10.10;;;;;;;-6.80;91.97;100686.16;10548755;28;20560;-71
2021/12/27 20:45:47;;;;;;;30.97;12.93;;;;;;;-6.98;92.41;100690.00;10548844;28;20237;-65
2021/12/27 20:50:51;;;;;;;33.20;13.17;;;;;;;-6.89;92.89;100691.50;10548450;28;20645;-65
2021/12/27 20:55:56;;;;;;;29.53;12.30;;;;;;;-6.76;93.03;100690.59;10548658;28;20302;-65
2021/12/27 21:00:59;;;;;;;33.37;13.17;;;;;;;-6.72;93.45;100683.31;10548132;28;20219;-67
2021/12/27 21:06:07;;;;;;;32.43;12.37;;;;;;;-6.77;93.93;100688.84;10547981;28;20223;-65
2021/12/27 21:11:13;;;;;;;43.10;13.53;;;;;;;-6.79;93.94;100687.88;10547242;28;20269;-64
2021/12/27 21:16:17;;;;;;;27.97;12.40;;;;;;;-6.68;94.42;100681.88;10547724;28;20219;-65
2021/12/27 21:21:20;;;;;;;32.53;13.13;;;;;;;-6.74;93.79;100672.25;10547420;28;20244;-71
2021/12/27 21:26:24;;;;;;;32.83;12.70;;;;;;;-6.64;93.63;100678.78;10547229;28;20230;-66
2021/12/27 21:31:28;;;;;;;32.43;13.47;;;;;;;-6.57;93.18;100683.41;10547157;28;20216;-68
2021/12/27 21:36:31;;;;;;;35.10;13.03;;;;;;;-6.40;93.15;100682.81;10547172;28;20239;-67
2021/12/27 21:41:36;;;;;;;26.10;12.03;;;;;;;-6.46;91.42;100683.31;10546740;28;20317;-70
2021/12/27 21:46:40;;;;;;;31.87;13.53;;;;;;;-6.55;90.77;100674.28;10546335;28;20542;-63
2021/12/27 21:51:43;;;;;;;30.97;13.17;;;;;;;-6.54;90.19;100688.66;10546368;28;20215;-71
2021/12/27 21:56:47;;;;;;;31.80;13.40;;;;;;;-6.53;90.20;100686.22;10546200;28;20665;-68
2021/12/27 22:01:51;;;;;;;34.47;13.93;;;;;;;-6.53;90.59;100670.19;10546013;28;20262;-68
2021/12/27 22:06:54;;;;;;;35.47;13.80;;;;;;;-6.43;90.00;100670.88;10545622;28;20311;-68
2021/12/27 22:11:59;;;;;;;30.80;12.27;;;;;;;-6.42;88.86;100644.81;10197815;27;10000147;-65
2021/12/27 22:17:10;;;;;;;29.10;12.87;;;;;;;-6.31;88.79;100646.38;10584486;27;20297;-67
2021/12/27 22:22:13;;;;;;;27.47;11.50;;;;;;;-6.29;87.82;100633.84;10586399;27;20302;-69
2021/12/27 22:27:18;;;;;;;33.67;14.57;;;;;;;-6.29;88.07;100636.34;10586993;28;20222;-68
2021/12/27 22:32:21;;;;;;;31.33;12.13;;;;;;;-6.33;88.90;100640.34;10586781;28;20229;-67
2021/12/27 22:37:24;;;;;;;33.67;12.00;;;;;;;-6.21;88.67;100635.16;10586800;28;20215;-65